sensor_id;sensor_type;location;lat;lon;timestamp;temperature;humidity
12874;DHT22;6505;51.114;13.128;2022-07-10T00:00:08;22.30;51.00
12874;DHT22;6505;51.114;13.128;2022-07-10T00:02:41;22.30;51.10
12874;DHT22;6505;51.114;13.128;2022-07-10T00:05:10;22.30;51.00
12874;DHT22;6505;51.114;13.128;2022-07-10T00:07:46;22.30;50.80
12874;DHT22;6505;51.114;13.128;2022-07-10T00:10:16;22.20;50.80
12874;DHT22;6505;51.114;13.128;2022-07-10T00:12:44;22.20;50.80
12874;DHT22;6505;51.114;13.128;2022-07-10T00:15:14;22.20;50.90
12874;DHT22;6505;51.114;13.128;2022-07-10T00:17:45;22.20;50.70
12874;DHT22;6505;51.114;13.128;2022-07-10T00:20:14;22.20;51.00
12874;DHT22;6505;51.114;13.128;2022-07-10T00:22:43;22.10;50.80
12874;DHT22;6505;51.114;13.128;2022-07-10T00:25:12;22.10;50.70
12874;DHT22;6505;51.114;13.128;2022-07-10T00:27:42;22.10;50.80
12874;DHT22;6505;51.114;13.128;2022-07-10T00:30:10;22.00;50.90
12874;DHT22;6505;51.114;13.128;2022-07-10T00:32:39;22.00;51.00
12874;DHT22;6505;51.114;13.128;2022-07-10T00:35:07;22.00;51.10
12874;DHT22;6505;51.114;13.128;2022-07-10T00:37:35;22.00;51.20
12874;DHT22;6505;51.114;13.128;2022-07-10T00:40:05;22.00;51.30
12874;DHT22;6505;51.114;13.128;2022-07-10T00:42:33;21.90;51.20
12874;DHT22;6505;51.114;13.128;2022-07-10T00:45:03;21.90;51.60
12874;DHT22;6505;51.114;13.128;2022-07-10T00:47:32;21.90;51.60
12874;DHT22;6505;51.114;13.128;2022-07-10T00:50:00;21.90;51.60
12874;DHT22;6505;51.114;13.128;2022-07-10T00:52:28;21.90;51.80
12874;DHT22;6505;51.114;13.128;2022-07-10T00:54:57;21.90;51.70
12874;DHT22;6505;51.114;13.128;2022-07-10T00:57:25;21.90;51.70
12874;DHT22;6505;51.114;13.128;2022-07-10T00:59:53;21.90;51.80
12874;DHT22;6505;51.114;13.128;2022-07-10T01:02:23;21.80;51.80
12874;DHT22;6505;51.114;13.128;2022-07-10T01:04:52;21.80;52.00
12874;DHT22;6505;51.114;13.128;2022-07-10T01:07:20;21.80;52.10
12874;DHT22;6505;51.114;13.128;2022-07-10T01:09:48;21.80;52.00
12874;DHT22;6505;51.114;13.128;2022-07-10T01:12:17;21.80;52.00
12874;DHT22;6505;51.114;13.128;2022-07-10T01:14:45;21.80;52.10
12874;DHT22;6505;51.114;13.128;2022-07-10T01:17:13;21.80;52.00
12874;DHT22;6505;51.114;13.128;2022-07-10T01:19:43;21.80;52.00
12874;DHT22;6505;51.114;13.128;2022-07-10T01:22:12;21.80;52.00
12874;DHT22;6505;51.114;13.128;2022-07-10T01:24:40;21.80;51.90
12874;DHT22;6505;51.114;13.128;2022-07-10T01:27:11;21.80;51.90
12874;DHT22;6505;51.114;13.128;2022-07-10T01:29:39;21.80;52.20
12874;DHT22;6505;51.114;13.128;2022-07-10T01:32:07;21.70;51.80
12874;DHT22;6505;51.114;13.128;2022-07-10T01:34:36;21.70;51.80
12874;DHT22;6505;51.114;13.128;2022-07-10T01:37:04;21.70;51.80
12874;DHT22;6505;51.114;13.128;2022-07-10T01:39:33;21.70;51.70
12874;DHT22;6505;51.114;13.128;2022-07-10T01:42:01;21.70;51.80
12874;DHT22;6505;51.114;13.128;2022-07-10T01:44:29;21.70;51.70
12874;DHT22;6505;51.114;13.128;2022-07-10T01:46:57;21.70;51.60
12874;DHT22;6505;51.114;13.128;2022-07-10T01:49:25;21.70;51.50
12874;DHT22;6505;51.114;13.128;2022-07-10T01:51:53;21.60;51.40
12874;DHT22;6505;51.114;13.128;2022-07-10T01:54:21;21.60;51.30
12874;DHT22;6505;51.114;13.128;2022-07-10T01:56:50;21.70;51.50
12874;DHT22;6505;51.114;13.128;2022-07-10T01:59:19;21.70;51.20
12874;DHT22;6505;51.114;13.128;2022-07-10T02:01:47;21.60;51.20
12874;DHT22;6505;51.114;13.128;2022-07-10T02:04:15;21.60;51.10
12874;DHT22;6505;51.114;13.128;2022-07-10T02:07:01;21.60;51.20
12874;DHT22;6505;51.114;13.128;2022-07-10T02:09:29;21.60;51.20
12874;DHT22;6505;51.114;13.128;2022-07-10T02:11:58;21.60;51.20
12874;DHT22;6505;51.114;13.128;2022-07-10T02:14:26;21.60;51.10
12874;DHT22;6505;51.114;13.128;2022-07-10T02:16:54;21.60;51.20
12874;DHT22;6505;51.114;13.128;2022-07-10T02:19:23;21.50;50.80
12874;DHT22;6505;51.114;13.128;2022-07-10T02:21:51;21.60;51.00
12874;DHT22;6505;51.114;13.128;2022-07-10T02:24:20;21.60;50.90
12874;DHT22;6505;51.114;13.128;2022-07-10T02:26:48;21.50;51.00
12874;DHT22;6505;51.114;13.128;2022-07-10T02:29:17;21.50;50.90
12874;DHT22;6505;51.114;13.128;2022-07-10T02:31:46;21.50;51.00
12874;DHT22;6505;51.114;13.128;2022-07-10T02:34:14;21.50;51.00
12874;DHT22;6505;51.114;13.128;2022-07-10T02:36:42;21.50;51.00
12874;DHT22;6505;51.114;13.128;2022-07-10T02:39:10;21.50;50.80
12874;DHT22;6505;51.114;13.128;2022-07-10T02:41:38;21.40;50.70
12874;DHT22;6505;51.114;13.128;2022-07-10T02:44:07;21.50;50.80
12874;DHT22;6505;51.114;13.128;2022-07-10T02:46:37;21.50;50.80
12874;DHT22;6505;51.114;13.128;2022-07-10T02:49:05;21.50;50.80
12874;DHT22;6505;51.114;13.128;2022-07-10T02:51:33;21.50;50.80
12874;DHT22;6505;51.114;13.128;2022-07-10T02:54:01;21.50;51.00
12874;DHT22;6505;51.114;13.128;2022-07-10T02:56:29;21.40;50.70
12874;DHT22;6505;51.114;13.128;2022-07-10T02:58:57;21.40;50.70
12874;DHT22;6505;51.114;13.128;2022-07-10T03:01:25;21.40;50.80
12874;DHT22;6505;51.114;13.128;2022-07-10T03:03:55;21.40;50.70
12874;DHT22;6505;51.114;13.128;2022-07-10T03:06:23;21.40;50.80
12874;DHT22;6505;51.114;13.128;2022-07-10T03:08:51;21.40;50.90
12874;DHT22;6505;51.114;13.128;2022-07-10T03:11:19;21.40;50.80
12874;DHT22;6505;51.114;13.128;2022-07-10T03:13:47;21.40;50.80
12874;DHT22;6505;51.114;13.128;2022-07-10T03:16:15;21.40;50.80
12874;DHT22;6505;51.114;13.128;2022-07-10T03:18:43;21.40;50.70
12874;DHT22;6505;51.114;13.128;2022-07-10T03:21:13;21.30;50.70
12874;DHT22;6505;51.114;13.128;2022-07-10T03:23:41;21.30;50.80
12874;DHT22;6505;51.114;13.128;2022-07-10T03:26:09;21.30;50.60
12874;DHT22;6505;51.114;13.128;2022-07-10T03:28:37;21.30;50.60
12874;DHT22;6505;51.114;13.128;2022-07-10T03:31:06;21.30;50.60
12874;DHT22;6505;51.114;13.128;2022-07-10T03:33:34;21.30;50.60
12874;DHT22;6505;51.114;13.128;2022-07-10T03:36:02;21.30;50.60
12874;DHT22;6505;51.114;13.128;2022-07-10T03:38:32;21.30;50.60
12874;DHT22;6505;51.114;13.128;2022-07-10T03:41:02;21.30;50.50
12874;DHT22;6505;51.114;13.128;2022-07-10T03:43:30;21.30;50.60
12874;DHT22;6505;51.114;13.128;2022-07-10T03:45:58;21.30;50.60
12874;DHT22;6505;51.114;13.128;2022-07-10T03:48:26;21.30;50.60
12874;DHT22;6505;51.114;13.128;2022-07-10T03:50:54;21.30;50.50
12874;DHT22;6505;51.114;13.128;2022-07-10T03:53:22;21.20;50.50
12874;DHT22;6505;51.114;13.128;2022-07-10T04:12:29;21.00;50.40
12874;DHT22;6505;51.114;13.128;2022-07-10T04:14:58;20.70;53.70
12874;DHT22;6505;51.114;13.128;2022-07-10T04:17:26;21.00;52.80
12874;DHT22;6505;51.114;13.128;2022-07-10T04:19:54;21.20;52.00
12874;DHT22;6505;51.114;13.128;2022-07-10T04:22:22;21.40;51.50
12874;DHT22;6505;51.114;13.128;2022-07-10T04:24:50;21.50;51.10
12874;DHT22;6505;51.114;13.128;2022-07-10T04:27:18;21.60;50.80
12874;DHT22;6505;51.114;13.128;2022-07-10T04:29:48;21.60;50.40
12874;DHT22;6505;51.114;13.128;2022-07-10T04:32:16;21.60;50.30
12874;DHT22;6505;51.114;13.128;2022-07-10T04:34:44;21.60;50.30
12874;DHT22;6505;51.114;13.128;2022-07-10T04:37:12;21.60;50.20
12874;DHT22;6505;51.114;13.128;2022-07-10T04:39:40;21.60;50.30
12874;DHT22;6505;51.114;13.128;2022-07-10T04:42:09;21.60;50.20
12874;DHT22;6505;51.114;13.128;2022-07-10T04:44:37;21.50;50.90
12874;DHT22;6505;51.114;13.128;2022-07-10T04:47:06;21.60;50.40
12874;DHT22;6505;51.114;13.128;2022-07-10T04:49:34;21.50;50.40
12874;DHT22;6505;51.114;13.128;2022-07-10T04:52:03;21.50;50.40
12874;DHT22;6505;51.114;13.128;2022-07-10T04:54:31;21.50;50.80
12874;DHT22;6505;51.114;13.128;2022-07-10T04:56:59;21.50;50.80
12874;DHT22;6505;51.114;13.128;2022-07-10T04:59:27;21.50;50.70
12874;DHT22;6505;51.114;13.128;2022-07-10T05:01:55;21.50;50.80
12874;DHT22;6505;51.114;13.128;2022-07-10T05:04:25;21.50;50.80
12874;DHT22;6505;51.114;13.128;2022-07-10T05:06:53;21.50;51.00
12874;DHT22;6505;51.114;13.128;2022-07-10T05:09:20;21.40;50.90
12874;DHT22;6505;51.114;13.128;2022-07-10T05:11:48;21.50;50.80
12874;DHT22;6505;51.114;13.128;2022-07-10T05:14:16;21.50;50.90
12874;DHT22;6505;51.114;13.128;2022-07-10T05:16:44;21.50;51.20
12874;DHT22;6505;51.114;13.128;2022-07-10T05:19:12;21.50;51.20
12874;DHT22;6505;51.114;13.128;2022-07-10T05:21:42;21.50;51.20
12874;DHT22;6505;51.114;13.128;2022-07-10T05:24:10;21.50;51.10
12874;DHT22;6505;51.114;13.128;2022-07-10T05:26:38;21.50;51.20
12874;DHT22;6505;51.114;13.128;2022-07-10T05:29:06;21.50;51.60
12874;DHT22;6505;51.114;13.128;2022-07-10T05:31:34;21.50;52.50
12874;DHT22;6505;51.114;13.128;2022-07-10T05:34:02;21.50;52.70
12874;DHT22;6505;51.114;13.128;2022-07-10T05:36:30;21.50;52.90
12874;DHT22;6505;51.114;13.128;2022-07-10T05:38:59;21.50;53.30
12874;DHT22;6505;51.114;13.128;2022-07-10T05:41:27;21.40;53.40
12874;DHT22;6505;51.114;13.128;2022-07-10T05:43:55;21.40;53.60
12874;DHT22;6505;51.114;13.128;2022-07-10T05:46:23;21.40;53.70
12874;DHT22;6505;51.114;13.128;2022-07-10T05:48:51;21.40;54.00
12874;DHT22;6505;51.114;13.128;2022-07-10T05:51:19;21.40;54.20
12874;DHT22;6505;51.114;13.128;2022-07-10T05:53:59;21.40;54.20
12874;DHT22;6505;51.114;13.128;2022-07-10T05:56:27;21.40;54.50
12874;DHT22;6505;51.114;13.128;2022-07-10T05:58:55;21.40;55.30
12874;DHT22;6505;51.114;13.128;2022-07-10T06:01:24;21.30;54.30
12874;DHT22;6505;51.114;13.128;2022-07-10T06:03:52;21.30;54.30
12874;DHT22;6505;51.114;13.128;2022-07-10T06:06:21;21.30;54.60
12874;DHT22;6505;51.114;13.128;2022-07-10T06:08:48;21.30;55.20
12874;DHT22;6505;51.114;13.128;2022-07-10T06:11:18;21.30;55.60
12874;DHT22;6505;51.114;13.128;2022-07-10T06:13:46;21.30;55.60
12874;DHT22;6505;51.114;13.128;2022-07-10T06:16:14;21.20;55.50
12874;DHT22;6505;51.114;13.128;2022-07-10T06:18:42;21.20;55.50
12874;DHT22;6505;51.114;13.128;2022-07-10T06:21:11;21.20;55.50
12874;DHT22;6505;51.114;13.128;2022-07-10T06:23:39;21.10;55.40
12874;DHT22;6505;51.114;13.128;2022-07-10T06:26:07;21.10;55.40
12874;DHT22;6505;51.114;13.128;2022-07-10T06:28:36;21.10;55.40
12874;DHT22;6505;51.114;13.128;2022-07-10T06:31:06;21.10;55.40
12874;DHT22;6505;51.114;13.128;2022-07-10T06:33:34;21.00;55.40
12874;DHT22;6505;51.114;13.128;2022-07-10T06:36:03;21.00;55.30
12874;DHT22;6505;51.114;13.128;2022-07-10T06:38:32;21.00;55.50
12874;DHT22;6505;51.114;13.128;2022-07-10T06:41:00;21.00;55.80
12874;DHT22;6505;51.114;13.128;2022-07-10T06:43:28;21.00;56.00
12874;DHT22;6505;51.114;13.128;2022-07-10T06:45:58;20.90;55.80
12874;DHT22;6505;51.114;13.128;2022-07-10T06:48:27;20.90;56.10
12874;DHT22;6505;51.114;13.128;2022-07-10T06:50:54;20.90;56.00
12874;DHT22;6505;51.114;13.128;2022-07-10T06:53:23;20.90;56.20
12874;DHT22;6505;51.114;13.128;2022-07-10T06:55:54;20.90;56.50
12874;DHT22;6505;51.114;13.128;2022-07-10T06:58:22;20.90;56.50
12874;DHT22;6505;51.114;13.128;2022-07-10T07:00:50;20.90;56.60
12874;DHT22;6505;51.114;13.128;2022-07-10T07:03:20;20.80;56.60
12874;DHT22;6505;51.114;13.128;2022-07-10T07:05:48;20.80;56.70
12874;DHT22;6505;51.114;13.128;2022-07-10T07:08:16;20.90;56.90
12874;DHT22;6505;51.114;13.128;2022-07-10T07:10:44;20.80;56.80
12874;DHT22;6505;51.114;13.128;2022-07-10T07:13:12;20.90;56.90
12874;DHT22;6505;51.114;13.128;2022-07-10T07:15:40;20.90;57.20
12874;DHT22;6505;51.114;13.128;2022-07-10T07:18:14;20.90;57.20
12874;DHT22;6505;51.114;13.128;2022-07-10T07:20:44;21.00;57.80
12874;DHT22;6505;51.114;13.128;2022-07-10T07:23:30;21.00;57.70
12874;DHT22;6505;51.114;13.128;2022-07-10T07:25:58;21.00;57.80
12874;DHT22;6505;51.114;13.128;2022-07-10T07:28:25;21.10;57.40
12874;DHT22;6505;51.114;13.128;2022-07-10T07:30:53;21.20;57.90
12874;DHT22;6505;51.114;13.128;2022-07-10T07:33:21;21.30;58.60
12874;DHT22;6505;51.114;13.128;2022-07-10T07:35:51;21.30;58.20
12874;DHT22;6505;51.114;13.128;2022-07-10T07:38:19;21.40;58.30
12874;DHT22;6505;51.114;13.128;2022-07-10T07:40:47;21.40;58.30
12874;DHT22;6505;51.114;13.128;2022-07-10T07:43:15;21.40;58.00
12874;DHT22;6505;51.114;13.128;2022-07-10T07:45:42;21.50;58.00
12874;DHT22;6505;51.114;13.128;2022-07-10T07:48:11;21.60;57.40
12874;DHT22;6505;51.114;13.128;2022-07-10T07:50:39;21.70;57.50
12874;DHT22;6505;51.114;13.128;2022-07-10T07:53:08;21.70;57.50
12874;DHT22;6505;51.114;13.128;2022-07-10T07:55:36;21.70;57.60
12874;DHT22;6505;51.114;13.128;2022-07-10T07:58:04;21.80;57.50
12874;DHT22;6505;51.114;13.128;2022-07-10T08:00:32;21.80;58.00
12874;DHT22;6505;51.114;13.128;2022-07-10T08:03:00;21.90;57.20
12874;DHT22;6505;51.114;13.128;2022-07-10T08:05:29;21.90;57.50
12874;DHT22;6505;51.114;13.128;2022-07-10T08:07:58;22.00;57.70
12874;DHT22;6505;51.114;13.128;2022-07-10T08:10:32;22.20;57.40
12874;DHT22;6505;51.114;13.128;2022-07-10T08:13:00;22.30;58.10
12874;DHT22;6505;51.114;13.128;2022-07-10T08:15:29;22.40;57.40
12874;DHT22;6505;51.114;13.128;2022-07-10T08:17:58;22.50;56.70
12874;DHT22;6505;51.114;13.128;2022-07-10T08:20:27;22.70;55.80
12874;DHT22;6505;51.114;13.128;2022-07-10T08:22:55;22.80;56.00
12874;DHT22;6505;51.114;13.128;2022-07-10T08:25:26;22.90;55.80
12874;DHT22;6505;51.114;13.128;2022-07-10T08:28:01;23.00;56.10
12874;DHT22;6505;51.114;13.128;2022-07-10T08:30:30;23.10;56.20
12874;DHT22;6505;51.114;13.128;2022-07-10T08:32:58;23.30;55.60
12874;DHT22;6505;51.114;13.128;2022-07-10T08:35:26;23.50;54.70
12874;DHT22;6505;51.114;13.128;2022-07-10T08:37:54;23.60;55.00
12874;DHT22;6505;51.114;13.128;2022-07-10T08:40:22;23.70;55.30
12874;DHT22;6505;51.114;13.128;2022-07-10T08:42:51;23.80;53.90
12874;DHT22;6505;51.114;13.128;2022-07-10T08:45:20;23.80;52.80
12874;DHT22;6505;51.114;13.128;2022-07-10T08:47:49;23.90;53.30
12874;DHT22;6505;51.114;13.128;2022-07-10T08:50:22;24.00;52.90
12874;DHT22;6505;51.114;13.128;2022-07-10T08:52:59;24.00;52.60
12874;DHT22;6505;51.114;13.128;2022-07-10T08:55:32;24.10;52.10
12874;DHT22;6505;51.114;13.128;2022-07-10T08:58:01;24.10;51.80
12874;DHT22;6505;51.114;13.128;2022-07-10T09:00:32;24.10;51.70
12874;DHT22;6505;51.114;13.128;2022-07-10T09:03:00;24.10;51.60
12874;DHT22;6505;51.114;13.128;2022-07-10T09:05:28;24.00;51.40
12874;DHT22;6505;51.114;13.128;2022-07-10T09:07:57;23.90;51.60
12874;DHT22;6505;51.114;13.128;2022-07-10T09:10:26;23.90;51.20
12874;DHT22;6505;51.114;13.128;2022-07-10T09:12:56;23.90;51.50
12874;DHT22;6505;51.114;13.128;2022-07-10T09:15:27;23.80;51.20
12874;DHT22;6505;51.114;13.128;2022-07-10T09:18:00;23.80;51.60
12874;DHT22;6505;51.114;13.128;2022-07-10T09:20:34;23.70;51.40
12874;DHT22;6505;51.114;13.128;2022-07-10T09:23:15;23.70;51.50
12874;DHT22;6505;51.114;13.128;2022-07-10T09:25:46;23.60;52.00
12874;DHT22;6505;51.114;13.128;2022-07-10T09:28:17;23.60;52.10
12874;DHT22;6505;51.114;13.128;2022-07-10T09:30:46;23.50;52.20
12874;DHT22;6505;51.114;13.128;2022-07-10T09:33:19;23.50;52.00
12874;DHT22;6505;51.114;13.128;2022-07-10T09:35:56;23.50;52.00
12874;DHT22;6505;51.114;13.128;2022-07-10T09:38:50;23.50;51.70
12874;DHT22;6505;51.114;13.128;2022-07-10T09:41:26;23.40;51.80
12874;DHT22;6505;51.114;13.128;2022-07-10T09:43:56;23.40;51.80
12874;DHT22;6505;51.114;13.128;2022-07-10T09:46:26;23.30;51.80
12874;DHT22;6505;51.114;13.128;2022-07-10T09:49:07;23.20;52.30
12874;DHT22;6505;51.114;13.128;2022-07-10T09:51:38;23.20;51.80
12874;DHT22;6505;51.114;13.128;2022-07-10T09:54:14;23.10;52.00
12874;DHT22;6505;51.114;13.128;2022-07-10T09:56:44;23.10;52.20
12874;DHT22;6505;51.114;13.128;2022-07-10T09:59:14;23.10;52.00
12874;DHT22;6505;51.114;13.128;2022-07-10T10:01:44;23.00;52.10
12874;DHT22;6505;51.114;13.128;2022-07-10T10:04:16;23.00;52.10
12874;DHT22;6505;51.114;13.128;2022-07-10T10:06:49;23.00;52.10
12874;DHT22;6505;51.114;13.128;2022-07-10T10:09:22;23.00;51.80
12874;DHT22;6505;51.114;13.128;2022-07-10T10:11:56;23.00;51.70
12874;DHT22;6505;51.114;13.128;2022-07-10T10:14:30;23.00;51.70
12874;DHT22;6505;51.114;13.128;2022-07-10T10:17:00;23.00;51.60
12874;DHT22;6505;51.114;13.128;2022-07-10T10:19:32;22.90;51.50
12874;DHT22;6505;51.114;13.128;2022-07-10T10:22:19;22.90;51.70
12874;DHT22;6505;51.114;13.128;2022-07-10T10:24:49;23.00;51.70
12874;DHT22;6505;51.114;13.128;2022-07-10T10:27:18;23.00;52.10
12874;DHT22;6505;51.114;13.128;2022-07-10T10:29:48;22.90;51.70
12874;DHT22;6505;51.114;13.128;2022-07-10T10:32:18;23.00;52.10
12874;DHT22;6505;51.114;13.128;2022-07-10T10:34:49;23.00;51.90
12874;DHT22;6505;51.114;13.128;2022-07-10T10:37:36;23.00;51.90
12874;DHT22;6505;51.114;13.128;2022-07-10T10:40:09;23.00;51.70
12874;DHT22;6505;51.114;13.128;2022-07-10T10:42:39;23.10;51.90
12874;DHT22;6505;51.114;13.128;2022-07-10T10:45:31;23.00;51.70
12874;DHT22;6505;51.114;13.128;2022-07-10T10:48:04;23.00;51.30
12874;DHT22;6505;51.114;13.128;2022-07-10T10:50:58;23.10;51.30
12874;DHT22;6505;51.114;13.128;2022-07-10T10:53:27;23.10;50.80
12874;DHT22;6505;51.114;13.128;2022-07-10T10:56:21;23.10;50.50
12874;DHT22;6505;51.114;13.128;2022-07-10T10:58:50;23.00;50.40
12874;DHT22;6505;51.114;13.128;2022-07-10T11:01:28;23.10;50.20
12874;DHT22;6505;51.114;13.128;2022-07-10T11:04:24;23.00;50.20
12874;DHT22;6505;51.114;13.128;2022-07-10T11:06:57;23.00;50.40
12874;DHT22;6505;51.114;13.128;2022-07-10T11:09:26;23.10;50.20
12874;DHT22;6505;51.114;13.128;2022-07-10T11:12:00;23.00;50.40
12874;DHT22;6505;51.114;13.128;2022-07-10T11:14:31;23.10;50.80
12874;DHT22;6505;51.114;13.128;2022-07-10T11:17:00;23.10;50.50
12874;DHT22;6505;51.114;13.128;2022-07-10T11:19:30;23.10;50.30
12874;DHT22;6505;51.114;13.128;2022-07-10T11:25:27;23.10;50.00
12874;DHT22;6505;51.114;13.128;2022-07-10T11:28:09;23.10;50.30
12874;DHT22;6505;51.114;13.128;2022-07-10T11:30:51;23.10;50.50
12874;DHT22;6505;51.114;13.128;2022-07-10T11:33:21;23.00;50.10
12874;DHT22;6505;51.114;13.128;2022-07-10T11:35:51;23.10;50.50
12874;DHT22;6505;51.114;13.128;2022-07-10T11:38:22;23.10;50.30
12874;DHT22;6505;51.114;13.128;2022-07-10T11:40:51;23.10;50.40
12874;DHT22;6505;51.114;13.128;2022-07-10T11:43:21;23.10;49.90
12874;DHT22;6505;51.114;13.128;2022-07-10T11:45:51;23.10;49.90
12874;DHT22;6505;51.114;13.128;2022-07-10T11:48:21;23.10;49.80
12874;DHT22;6505;51.114;13.128;2022-07-10T11:50:51;23.10;49.60
12874;DHT22;6505;51.114;13.128;2022-07-10T11:53:24;23.10;49.30
12874;DHT22;6505;51.114;13.128;2022-07-10T11:55:55;23.10;49.20
12874;DHT22;6505;51.114;13.128;2022-07-10T11:58:23;23.10;49.20
12874;DHT22;6505;51.114;13.128;2022-07-10T12:00:58;23.00;49.30
12874;DHT22;6505;51.114;13.128;2022-07-10T12:03:29;23.00;49.40
12874;DHT22;6505;51.114;13.128;2022-07-10T12:06:02;23.00;49.30
12874;DHT22;6505;51.114;13.128;2022-07-10T12:08:44;23.00;49.10
12874;DHT22;6505;51.114;13.128;2022-07-10T12:11:14;23.00;49.20
12874;DHT22;6505;51.114;13.128;2022-07-10T12:13:45;23.00;49.20
12874;DHT22;6505;51.114;13.128;2022-07-10T12:16:14;23.00;49.20
12874;DHT22;6505;51.114;13.128;2022-07-10T12:18:43;23.10;49.50
12874;DHT22;6505;51.114;13.128;2022-07-10T12:21:14;23.00;49.20
12874;DHT22;6505;51.114;13.128;2022-07-10T12:23:45;23.10;49.50
12874;DHT22;6505;51.114;13.128;2022-07-10T12:26:15;23.10;49.30
12874;DHT22;6505;51.114;13.128;2022-07-10T12:28:51;23.10;49.80
12874;DHT22;6505;51.114;13.128;2022-07-10T12:31:25;23.20;49.30
12874;DHT22;6505;51.114;13.128;2022-07-10T12:33:56;23.20;48.30
12874;DHT22;6505;51.114;13.128;2022-07-10T12:36:41;23.20;48.90
12874;DHT22;6505;51.114;13.128;2022-07-10T12:39:13;23.30;48.70
12874;DHT22;6505;51.114;13.128;2022-07-10T12:41:59;23.30;48.90
12874;DHT22;6505;51.114;13.128;2022-07-10T12:44:33;23.30;48.40
12874;DHT22;6505;51.114;13.128;2022-07-10T12:47:04;23.30;48.10
12874;DHT22;6505;51.114;13.128;2022-07-10T12:49:52;23.30;48.10
12874;DHT22;6505;51.114;13.128;2022-07-10T12:52:23;23.30;48.00
12874;DHT22;6505;51.114;13.128;2022-07-10T12:55:10;23.30;47.80
12874;DHT22;6505;51.114;13.128;2022-07-10T12:57:48;23.30;47.50
12874;DHT22;6505;51.114;13.128;2022-07-10T13:00:18;23.30;47.30
12874;DHT22;6505;51.114;13.128;2022-07-10T13:02:48;23.40;47.70
12874;DHT22;6505;51.114;13.128;2022-07-10T13:05:29;23.40;47.50
12874;DHT22;6505;51.114;13.128;2022-07-10T13:08:09;23.40;47.30
12874;DHT22;6505;51.114;13.128;2022-07-10T13:10:42;23.40;47.40
12874;DHT22;6505;51.114;13.128;2022-07-10T13:13:11;23.40;46.70
12874;DHT22;6505;51.114;13.128;2022-07-10T13:15:39;23.40;46.90
12874;DHT22;6505;51.114;13.128;2022-07-10T13:18:13;23.40;46.90
12874;DHT22;6505;51.114;13.128;2022-07-10T13:20:44;23.40;46.40
12874;DHT22;6505;51.114;13.128;2022-07-10T13:23:13;23.40;46.70
12874;DHT22;6505;51.114;13.128;2022-07-10T13:25:42;23.50;46.40
12874;DHT22;6505;51.114;13.128;2022-07-10T13:28:11;23.50;47.00
12874;DHT22;6505;51.114;13.128;2022-07-10T13:30:39;23.50;46.40
12874;DHT22;6505;51.114;13.128;2022-07-10T13:33:07;23.50;46.70
12874;DHT22;6505;51.114;13.128;2022-07-10T13:35:36;23.50;46.90
12874;DHT22;6505;51.114;13.128;2022-07-10T13:38:04;23.50;46.70
12874;DHT22;6505;51.114;13.128;2022-07-10T13:40:38;23.50;46.40
12874;DHT22;6505;51.114;13.128;2022-07-10T13:43:08;23.50;46.90
12874;DHT22;6505;51.114;13.128;2022-07-10T13:45:38;23.50;47.10
12874;DHT22;6505;51.114;13.128;2022-07-10T13:48:10;23.50;47.20
12874;DHT22;6505;51.114;13.128;2022-07-10T13:50:39;23.50;47.10
12874;DHT22;6505;51.114;13.128;2022-07-10T13:53:07;23.50;46.90
12874;DHT22;6505;51.114;13.128;2022-07-10T13:55:36;23.50;46.80
12874;DHT22;6505;51.114;13.128;2022-07-10T13:58:04;23.50;46.80
12874;DHT22;6505;51.114;13.128;2022-07-10T14:00:33;23.50;46.80
12874;DHT22;6505;51.114;13.128;2022-07-10T14:03:02;23.50;46.80
12874;DHT22;6505;51.114;13.128;2022-07-10T14:05:32;23.50;46.80
12874;DHT22;6505;51.114;13.128;2022-07-10T14:08:02;23.50;46.50
12874;DHT22;6505;51.114;13.128;2022-07-10T14:10:30;23.50;46.20
12874;DHT22;6505;51.114;13.128;2022-07-10T14:12:58;23.50;46.20
12874;DHT22;6505;51.114;13.128;2022-07-10T14:15:27;23.60;45.90
12874;DHT22;6505;51.114;13.128;2022-07-10T14:17:56;23.50;46.00
12874;DHT22;6505;51.114;13.128;2022-07-10T14:20:24;23.50;46.20
12874;DHT22;6505;51.114;13.128;2022-07-10T14:22:52;23.60;46.10
12874;DHT22;6505;51.114;13.128;2022-07-10T14:25:23;23.50;46.30
12874;DHT22;6505;51.114;13.128;2022-07-10T14:27:54;23.50;45.90
12874;DHT22;6505;51.114;13.128;2022-07-10T14:30:22;23.50;46.10
12874;DHT22;6505;51.114;13.128;2022-07-10T14:32:50;23.50;45.90
12874;DHT22;6505;51.114;13.128;2022-07-10T14:35:23;23.60;46.10
12874;DHT22;6505;51.114;13.128;2022-07-10T14:37:51;23.50;46.00
12874;DHT22;6505;51.114;13.128;2022-07-10T14:40:19;23.50;46.10
12874;DHT22;6505;51.114;13.128;2022-07-10T14:42:47;23.50;46.40
12874;DHT22;6505;51.114;13.128;2022-07-10T14:45:20;23.50;46.10
12874;DHT22;6505;51.114;13.128;2022-07-10T14:48:09;23.40;46.00
12874;DHT22;6505;51.114;13.128;2022-07-10T14:50:38;23.40;45.50
12874;DHT22;6505;51.114;13.128;2022-07-10T14:53:07;23.40;45.40
12874;DHT22;6505;51.114;13.128;2022-07-10T14:55:35;23.50;45.60
12874;DHT22;6505;51.114;13.128;2022-07-10T14:58:03;23.50;45.90
12874;DHT22;6505;51.114;13.128;2022-07-10T15:00:31;23.50;45.60
12874;DHT22;6505;51.114;13.128;2022-07-10T15:03:00;23.50;45.40
12874;DHT22;6505;51.114;13.128;2022-07-10T15:05:30;23.50;45.50
12874;DHT22;6505;51.114;13.128;2022-07-10T15:08:01;23.50;45.60
12874;DHT22;6505;51.114;13.128;2022-07-10T15:10:30;23.50;45.40
12874;DHT22;6505;51.114;13.128;2022-07-10T15:13:00;23.50;45.80
12874;DHT22;6505;51.114;13.128;2022-07-10T15:15:31;23.50;45.40
12874;DHT22;6505;51.114;13.128;2022-07-10T15:18:00;23.50;45.10
12874;DHT22;6505;51.114;13.128;2022-07-10T15:20:29;23.50;45.10
12874;DHT22;6505;51.114;13.128;2022-07-10T15:22:58;23.50;44.70
12874;DHT22;6505;51.114;13.128;2022-07-10T15:25:27;23.50;44.40
12874;DHT22;6505;51.114;13.128;2022-07-10T15:27:55;23.50;44.30
12874;DHT22;6505;51.114;13.128;2022-07-10T15:30:23;23.50;44.80
12874;DHT22;6505;51.114;13.128;2022-07-10T15:32:51;23.60;45.00
12874;DHT22;6505;51.114;13.128;2022-07-10T15:35:20;23.60;44.60
12874;DHT22;6505;51.114;13.128;2022-07-10T15:37:50;23.60;44.70
12874;DHT22;6505;51.114;13.128;2022-07-10T15:40:27;23.60;44.80
12874;DHT22;6505;51.114;13.128;2022-07-10T15:42:56;23.60;44.90
12874;DHT22;6505;51.114;13.128;2022-07-10T15:45:24;23.60;44.80
12874;DHT22;6505;51.114;13.128;2022-07-10T15:47:52;23.60;44.80
12874;DHT22;6505;51.114;13.128;2022-07-10T15:50:23;23.70;44.50
12874;DHT22;6505;51.114;13.128;2022-07-10T15:52:59;23.70;44.60
12874;DHT22;6505;51.114;13.128;2022-07-10T15:55:29;23.70;45.20
12874;DHT22;6505;51.114;13.128;2022-07-10T15:57:57;23.60;45.00
12874;DHT22;6505;51.114;13.128;2022-07-10T16:00:25;23.70;44.60
12874;DHT22;6505;51.114;13.128;2022-07-10T16:02:53;23.70;44.60
12874;DHT22;6505;51.114;13.128;2022-07-10T16:05:24;23.70;44.50
12874;DHT22;6505;51.114;13.128;2022-07-10T16:07:52;23.70;44.80